Time;durP1;ratioP1;P1;durP2;ratioP2;P2;SDS_P1;SDS_P2;PMS_P1;PMS_P2;Temp;Humidity;BMP_temperature;BMP_pressure;BME280_temperature;BME280_humidity;BME280_pressure;Samples;Min_cycle;Max_cycle;Signal;HPM_P1;HPM_P2
2022/11/09 00:02:23;;;;;;;5.63;2.33;;;;;;;11.96;88.72;100400.34;5051668;28;20063;-74
2022/11/09 00:04:49;;;;;;;7.90;1.88;;;;;;;12.00;88.75;100400.97;5024702;28;20041;-74
2022/11/09 00:07:14;;;;;;;4.80;1.88;;;;;;;12.03;88.54;100400.72;5031163;28;20027;-74
2022/11/09 00:09:40;;;;;;;8.98;2.13;;;;;;;12.08;88.62;100408.50;5033132;28;20060;-74
2022/11/09 00:12:06;;;;;;;4.75;1.70;;;;;;;12.08;88.25;100416.66;5032052;28;20084;-74
2022/11/09 00:14:32;;;;;;;7.85;1.67;;;;;;;12.06;87.88;100400.41;5031687;28;20037;-74
2022/11/09 00:16:58;;;;;;;6.47;1.80;;;;;;;12.03;88.13;100399.81;5031162;28;20049;-74
2022/11/09 00:19:24;;;;;;;5.55;2.08;;;;;;;12.04;87.96;100402.44;5041007;28;20025;-74
2022/11/09 00:21:49;;;;;;;4.03;2.00;;;;;;;12.02;88.37;100396.22;5049328;28;20040;-74
2022/11/09 00:24:14;;;;;;;12.63;2.00;;;;;;;12.00;88.63;100404.53;5034773;28;20021;-74
2022/11/09 00:26:40;;;;;;;7.53;2.30;;;;;;;11.96;88.59;100407.66;5031853;28;20132;-74
2022/11/09 00:29:06;;;;;;;7.97;2.08;;;;;;;11.97;89.14;100407.53;5039041;28;20016;-75
2022/11/09 00:31:31;;;;;;;11.63;2.42;;;;;;;11.98;89.20;100403.81;5049866;28;20105;-74
2022/11/09 00:33:57;;;;;;;6.60;2.58;;;;;;;12.03;89.24;100408.00;5050804;28;20175;-74
2022/11/09 00:36:24;;;;;;;8.27;2.53;;;;;;;12.10;89.08;100398.31;5049435;28;20504;-74
2022/11/09 00:38:52;;;;;;;6.22;2.42;;;;;;;12.08;89.19;100393.00;5037436;28;20040;-74
2022/11/09 00:41:18;;;;;;;3.95;1.60;;;;;;;12.03;88.80;100389.81;5013238;28;20033;-74
2022/11/09 00:43:43;;;;;;;6.22;2.50;;;;;;;12.00;89.18;100381.88;5030878;28;20040;-74
2022/11/09 00:46:09;;;;;;;5.55;2.03;;;;;;;12.00;89.50;100380.00;5029901;28;20021;-74
2022/11/09 00:48:35;;;;;;;7.30;2.30;;;;;;;11.98;88.77;100386.56;5031398;28;20400;-73
2022/11/09 00:51:01;;;;;;;7.45;2.80;;;;;;;11.93;89.24;100383.38;5013059;28;20029;-73
2022/11/09 00:53:28;;;;;;;7.38;2.30;;;;;;;11.88;89.35;100386.50;5038314;28;20441;-74
2022/11/09 00:55:53;;;;;;;4.68;1.90;;;;;;;11.91;89.56;100382.66;5040033;28;20032;-73
2022/11/09 00:58:19;;;;;;;7.65;2.50;;;;;;;11.89;89.91;100387.38;5042571;28;20120;-73
2022/11/09 01:00:45;;;;;;;3.22;1.88;;;;;;;11.88;89.76;100386.50;5038651;28;20447;-74
2022/11/09 01:03:10;;;;;;;12.55;2.67;;;;;;;11.89;89.49;100387.38;5030257;28;20045;-74
2022/11/09 01:05:38;;;;;;;7.68;2.38;;;;;;;11.90;89.57;100395.44;5029054;28;20400;-75
2022/11/09 01:08:04;;;;;;;5.43;1.90;;;;;;;11.93;89.64;100388.84;5029100;28;20101;-74
2022/11/09 01:10:29;;;;;;;6.40;2.38;;;;;;;11.93;89.20;100391.56;5030060;28;20060;-73
2022/11/09 01:12:55;;;;;;;4.95;2.17;;;;;;;11.91;89.63;100397.16;5030096;28;20045;-74
2022/11/09 01:15:20;;;;;;;5.25;2.08;;;;;;;11.91;89.29;100393.56;5028931;28;20063;-74
2022/11/09 01:17:46;;;;;;;5.50;2.33;;;;;;;11.90;89.33;100397.28;5028565;28;20034;-74
2022/11/09 01:20:13;;;;;;;7.88;1.90;;;;;;;11.88;89.26;100402.84;5028666;28;20029;-74
2022/11/09 01:22:38;;;;;;;4.70;1.85;;;;;;;11.89;89.25;100406.44;5029860;28;20106;-73
2022/11/09 01:25:04;;;;;;;6.50;1.98;;;;;;;11.89;88.97;100412.78;5030089;28;20084;-73
2022/11/09 01:27:31;;;;;;;11.68;2.50;;;;;;;11.90;88.88;100408.19;5028874;28;20043;-74
2022/11/09 01:29:57;;;;;;;4.70;2.05;;;;;;;11.89;89.13;100409.16;5030283;28;20083;-73
2022/11/09 01:32:23;;;;;;;6.22;2.17;;;;;;;11.89;89.09;100406.44;5030062;28;20484;-74
2022/11/09 01:34:48;;;;;;;10.68;1.80;;;;;;;11.93;88.72;100421.53;5028779;28;20029;-73
2022/11/09 01:37:13;;;;;;;6.55;1.90;;;;;;;11.94;88.94;100412.41;5038733;28;20045;-74
2022/11/09 01:39:39;;;;;;;7.97;1.70;;;;;;;11.93;88.69;100416.09;5028727;28;20036;-74
2022/11/09 01:42:04;;;;;;;5.90;1.85;;;;;;;11.93;88.54;100416.94;5030320;28;20045;-74
2022/11/09 01:44:30;;;;;;;6.78;2.38;;;;;;;11.92;88.60;100417.97;5029720;28;20095;-74
2022/11/09 01:47:00;;;;;;;7.15;1.90;;;;;;;11.92;88.35;100415.22;5029408;28;20041;-74
2022/11/09 01:49:44;;;;;;;7.93;1.88;;;;;;;11.89;88.58;100425.53;5029597;28;20833;-74
2022/11/09 01:52:24;;;;;;;5.75;2.15;;;;;;;11.87;88.50;100424.81;5027988;28;20531;-74
2022/11/09 01:54:54;;;;;;;6.78;2.13;;;;;;;11.85;88.43;100415.91;5028904;28;20033;-74
2022/11/09 01:57:29;;;;;;;4.95;2.20;;;;;;;11.80;88.30;100407.19;5042911;28;20033;-74
2022/11/09 01:59:59;;;;;;;4.72;1.67;;;;;;;11.79;88.33;100397.28;5028060;28;20038;-74
2022/11/09 02:02:24;;;;;;;4.35;1.52;;;;;;;11.77;88.25;100410.19;5047803;28;20033;-74
2022/11/09 02:04:55;;;;;;;6.60;1.80;;;;;;;11.74;88.21;100417.63;5045234;28;20048;-74
2022/11/09 02:07:22;;;;;;;7.65;1.90;;;;;;;11.74;88.37;100425.78;5027573;28;20036;-75
2022/11/09 02:09:58;;;;;;;8.63;2.67;;;;;;;11.70;88.44;100415.28;5011489;28;20064;-74
2022/11/09 02:12:24;;;;;;;8.43;1.85;;;;;;;11.70;88.37;100407.09;5030026;28;20091;-74
2022/11/09 02:14:52;;;;;;;5.38;1.85;;;;;;;11.68;88.41;100412.69;5027782;28;20048;-74
2022/11/09 02:17:18;;;;;;;7.15;1.90;;;;;;;11.66;88.82;100414.69;5028005;28;20106;-74
2022/11/09 02:19:44;;;;;;;4.63;1.73;;;;;;;11.63;88.73;100414.06;5012266;28;20029;-74
2022/11/09 02:22:10;;;;;;;6.93;1.92;;;;;;;11.62;88.86;100418.66;5030041;28;20029;-74
2022/11/09 02:24:35;;;;;;;5.30;1.58;;;;;;;11.63;89.06;100416.81;5045925;28;20040;-74
2022/11/09 02:27:05;;;;;;;4.25;1.80;;;;;;;11.66;89.00;100425.59;5013573;28;20378;-74
2022/11/09 02:29:40;;;;;;;5.78;2.00;;;;;;;11.68;88.65;100425.47;5039634;28;20033;-74
2022/11/09 02:32:11;;;;;;;12.30;2.17;;;;;;;11.72;88.27;100435.97;5042540;28;20041;-74
2022/11/09 02:34:36;;;;;;;7.68;2.03;;;;;;;11.77;88.69;100432.00;5028760;28;20045;-75
2022/11/09 02:37:01;;;;;;;7.55;2.22;;;;;;;11.77;88.71;100432.84;5027588;28;20033;-74
2022/11/09 02:39:27;;;;;;;4.30;1.83;;;;;;;11.81;88.74;100439.78;5011163;28;20189;-74
2022/11/09 02:42:00;;;;;;;4.88;1.75;;;;;;;11.85;88.38;100426.81;5027095;28;20072;-74
2022/11/09 02:44:33;;;;;;;9.48;2.20;;;;;;;11.90;87.99;100417.25;5027780;28;20037;-73
2022/11/09 02:46:58;;;;;;;6.03;2.03;;;;;;;11.92;87.67;100414.38;5027610;28;20049;-73
2022/11/09 02:49:25;;;;;;;6.47;1.75;;;;;;;11.94;87.60;100410.53;5027429;28;20053;-74
2022/11/09 02:51:51;;;;;;;5.63;1.83;;;;;;;11.95;87.12;100414.13;5028619;28;20060;-73
2022/11/09 02:54:16;;;;;;;5.55;1.60;;;;;;;11.95;87.23;100397.75;5027312;28;20034;-74
2022/11/09 02:56:42;;;;;;;8.80;1.88;;;;;;;11.91;87.38;100388.97;5026745;28;20036;-74
2022/11/09 02:59:08;;;;;;;6.65;1.98;;;;;;;11.92;87.25;100398.88;5047006;28;20037;-73
2022/11/09 03:01:33;;;;;;;8.50;1.98;;;;;;;11.95;87.06;100401.34;5032609;28;20037;-73
2022/11/09 03:03:58;;;;;;;7.97;1.90;;;;;;;11.98;86.67;100397.47;5010945;28;20043;-73
2022/11/09 03:06:33;;;;;;;4.78;1.75;;;;;;;12.00;86.49;100412.72;5026889;28;20175;-74
2022/11/09 03:09:00;;;;;;;6.13;1.65;;;;;;;12.05;86.10;100415.06;5011031;28;20037;-74
2022/11/09 03:11:27;;;;;;;5.85;1.77;;;;;;;12.08;85.95;100427.59;5034902;28;20353;-73
2022/11/09 03:13:52;;;;;;;8.60;1.50;;;;;;;12.08;85.75;100433.91;5028477;28;20041;-74
2022/11/09 03:16:18;;;;;;;9.00;2.20;;;;;;;12.08;85.70;100431.16;5026656;28;20095;-74
2022/11/09 03:18:43;;;;;;;10.95;1.80;;;;;;;12.08;85.64;100438.50;5039988;28;20500;-74
2022/11/09 03:21:09;;;;;;;9.90;2.22;;;;;;;12.04;85.90;100440.59;5046668;28;20025;-73
2022/11/09 03:23:34;;;;;;;2.95;1.42;;;;;;;11.99;85.83;100451.91;5045525;28;20104;-74
2022/11/09 03:26:01;;;;;;;8.05;1.92;;;;;;;12.03;85.47;100451.63;5037735;28;20091;-74
2022/11/09 03:28:26;;;;;;;8.82;1.80;;;;;;;12.04;85.61;100454.22;5026770;28;20029;-74
2022/11/09 03:30:53;;;;;;;11.57;1.90;;;;;;;12.03;85.76;100449.78;5026790;28;20259;-74
2022/11/09 03:33:19;;;;;;;8.85;2.13;;;;;;;12.00;85.68;100439.13;5026576;28;20032;-74
2022/11/09 03:35:44;;;;;;;7.88;1.92;;;;;;;11.95;85.92;100444.97;5026594;28;20038;-74
2022/11/09 03:38:12;;;;;;;9.82;2.08;;;;;;;11.94;86.03;100456.00;5026369;28;20043;-74
2022/11/09 03:40:38;;;;;;;5.13;1.30;;;;;;;11.91;86.15;100459.00;5009926;28;20117;-74
2022/11/09 03:43:04;;;;;;;10.23;2.03;;;;;;;11.92;86.56;100461.56;5027160;28;20099;-73
2022/11/09 03:45:30;;;;;;;10.93;1.83;;;;;;;11.91;86.78;100468.03;5031551;28;20033;-74
2022/11/09 03:48:01;;;;;;;5.78;1.60;;;;;;;11.89;86.56;100474.59;5029288;28;20316;-74
2022/11/09 03:50:29;;;;;;;8.98;1.70;;;;;;;11.86;86.83;100475.72;5028118;28;20038;-73
2022/11/09 03:52:55;;;;;;;3.72;1.50;;;;;;;11.84;86.97;100474.97;5027981;28;20091;-74
2022/11/09 03:55:20;;;;;;;10.88;2.00;;;;;;;11.85;87.01;100487.63;5028056;28;20443;-74
2022/11/09 03:57:45;;;;;;;10.57;1.83;;;;;;;11.83;86.91;100486.00;5026701;28;20033;-73
2022/11/09 04:00:14;;;;;;;9.43;1.98;;;;;;;11.85;87.39;100493.09;5027962;28;20037;-74
2022/11/09 04:02:39;;;;;;;10.82;2.40;;;;;;;11.86;87.22;100497.53;5026872;28;20021;-74
2022/11/09 04:05:05;;;;;;;8.85;2.33;;;;;;;11.83;87.49;100491.47;5028547;28;20037;-73
2022/11/09 04:07:31;;;;;;;7.03;1.77;;;;;;;11.82;87.29;100492.44;5026060;28;20061;-74
2022/11/09 04:09:56;;;;;;;12.35;1.85;;;;;;;11.75;87.24;100495.69;5028087;28;20128;-74
2022/11/09 04:12:22;;;;;;;8.02;1.50;;;;;;;11.68;87.64;100494.44;5033456;28;20075;-74
2022/11/09 04:14:47;;;;;;;7.60;2.88;;;;;;;11.63;87.85;100499.41;5046277;28;20387;-74
2022/11/09 04:17:12;;;;;;;9.30;1.90;;;;;;;11.57;88.14;100518.13;5026714;28;20041;-73
2022/11/09 04:19:38;;;;;;;7.85;2.03;;;;;;;11.48;88.16;100517.88;5031149;28;20037;-74
2022/11/09 04:22:03;;;;;;;11.50;1.80;;;;;;;11.44;88.74;100521.84;5031950;28;20052;-73
2022/11/09 04:24:29;;;;;;;9.27;1.70;;;;;;;11.43;89.29;100519.25;5013867;28;20041;-74
2022/11/09 04:26:54;;;;;;;7.20;2.08;;;;;;;11.36;89.36;100518.00;5044280;28;20360;-73
2022/11/09 04:29:19;;;;;;;10.63;2.00;;;;;;;11.35;89.21;100530.75;5040011;28;20505;-74
2022/11/09 04:31:47;;;;;;;9.07;1.80;;;;;;;11.31;89.68;100533.84;5035026;28;20531;-74
2022/11/09 04:34:12;;;;;;;5.28;1.60;;;;;;;11.31;89.76;100539.31;5031059;28;20041;-73
2022/11/09 04:36:38;;;;;;;6.07;1.63;;;;;;;11.34;89.99;100531.75;5012934;28;20503;-74
2022/11/09 04:39:03;;;;;;;7.60;1.90;;;;;;;11.36;90.06;100527.03;5044660;28;20428;-74
2022/11/09 04:41:28;;;;;;;7.07;1.63;;;;;;;11.36;90.00;100529.75;5038420;28;20338;-73
2022/11/09 04:43:54;;;;;;;5.78;1.65;;;;;;;11.40;90.11;100533.97;5030866;28;20068;-74
2022/11/09 04:46:19;;;;;;;8.43;2.22;;;;;;;11.42;90.15;100539.28;5029294;28;20061;-73
2022/11/09 04:48:44;;;;;;;6.43;1.67;;;;;;;11.43;90.08;100535.59;5030931;28;20484;-74
2022/11/09 04:51:10;;;;;;;8.63;2.33;;;;;;;11.40;90.14;100535.84;5029233;28;20033;-74
2022/11/09 04:53:36;;;;;;;7.90;1.95;;;;;;;11.40;89.88;100544.00;5030611;28;20480;-75
2022/11/09 04:56:03;;;;;;;12.85;2.33;;;;;;;11.34;89.70;100539.94;5029556;28;20461;-74
2022/11/09 04:58:28;;;;;;;5.45;1.63;;;;;;;11.28;89.83;100544.97;5030331;28;20484;-74
2022/11/09 05:00:54;;;;;;;9.77;1.85;;;;;;;11.21;90.44;100531.00;5029266;28;20136;-74
2022/11/09 05:03:20;;;;;;;12.00;1.88;;;;;;;11.13;90.79;100523.44;5029135;28;20399;-74
2022/11/09 05:05:45;;;;;;;9.77;2.15;;;;;;;11.06;90.72;100521.34;5030308;28;20037;-73
2022/11/09 05:08:11;;;;;;;8.57;1.85;;;;;;;11.04;91.16;100529.63;5028924;28;20117;-74
2022/11/09 05:10:37;;;;;;;7.75;2.20;;;;;;;11.03;90.97;100525.16;5012312;28;20064;-74
2022/11/09 05:13:04;;;;;;;10.57;2.03;;;;;;;10.98;90.97;100530.13;5029202;28;20029;-74
2022/11/09 05:15:29;;;;;;;15.13;2.00;;;;;;;10.92;91.19;100519.72;5029270;28;20501;-74
2022/11/09 05:17:55;;;;;;;9.10;1.70;;;;;;;10.87;91.11;100525.53;5028986;28;20502;-74
2022/11/09 05:20:21;;;;;;;11.52;1.95;;;;;;;10.83;91.78;100532.19;5030495;28;20397;-73
2022/11/09 05:25:30;;;;;;;11.52;2.05;;;;;;;10.82;91.98;100532.28;5030701;28;20044;-73
2022/11/09 05:27:55;;;;;;;13.48;2.88;;;;;;;10.81;92.07;100530.56;5028648;28;20041;-74
2022/11/09 05:30:21;;;;;;;7.45;2.28;;;;;;;10.78;92.43;100526.25;5029771;28;20113;-74
2022/11/09 05:32:47;;;;;;;7.57;1.65;;;;;;;10.79;92.74;100525.25;5029963;28;20041;-74
2022/11/09 05:35:12;;;;;;;8.55;1.88;;;;;;;10.80;91.99;100532.44;5036028;28;20518;-74
2022/11/09 05:37:38;;;;;;;9.93;1.77;;;;;;;10.74;92.25;100524.75;5028503;28;20397;-73
2022/11/09 05:40:05;;;;;;;6.93;1.83;;;;;;;10.77;92.58;100531.78;5030063;28;20510;-74
2022/11/09 05:42:30;;;;;;;6.25;2.33;;;;;;;10.75;92.75;100528.34;5042257;28;20032;-74
2022/11/09 05:44:55;;;;;;;6.15;2.00;;;;;;;10.72;92.54;100534.88;5028351;28;20037;-74
2022/11/09 05:47:21;;;;;;;11.25;2.88;;;;;;;10.70;92.80;100529.56;5031428;28;20032;-74
2022/11/09 05:49:46;;;;;;;9.82;2.13;;;;;;;10.69;92.66;100538.72;5032156;28;20037;-74
2022/11/09 05:52:12;;;;;;;6.50;2.08;;;;;;;10.65;92.56;100529.06;5028629;28;20495;-73
2022/11/09 05:54:37;;;;;;;6.32;2.20;;;;;;;10.65;92.61;100529.06;5037534;28;20508;-74
2022/11/09 05:57:02;;;;;;;8.07;2.00;;;;;;;10.62;92.63;100542.03;5037614;28;20036;-73
2022/11/09 05:59:28;;;;;;;6.82;1.63;;;;;;;10.56;92.58;100537.06;5036592;28;20027;-74
2022/11/09 06:01:53;;;;;;;14.57;2.45;;;;;;;10.55;93.62;100528.03;5043116;28;20120;-73
2022/11/09 06:04:18;;;;;;;9.35;2.20;;;;;;;10.58;93.08;100535.94;5028367;28;20060;-74
2022/11/09 06:06:44;;;;;;;9.07;2.17;;;;;;;10.53;92.77;100530.00;5028308;28;20041;-74
2022/11/09 06:09:09;;;;;;;8.80;1.85;;;;;;;10.52;92.86;100530.13;5026858;28;20037;-74
2022/11/09 06:11:34;;;;;;;13.18;2.25;;;;;;;10.48;93.13;100532.22;5042530;28;20037;-74
2022/11/09 06:14:00;;;;;;;7.80;2.20;;;;;;;10.47;93.08;100544.09;5040499;28;20231;-74
2022/11/09 06:16:25;;;;;;;12.60;2.40;;;;;;;10.44;93.04;100538.88;5035315;28;20213;-74
2022/11/09 06:18:50;;;;;;;8.43;1.67;;;;;;;10.38;93.09;100545.66;5041940;28;20572;-75
2022/11/09 06:21:16;;;;;;;13.82;2.03;;;;;;;10.35;93.75;100536.84;5036196;28;20112;-74
2022/11/09 06:23:42;;;;;;;8.75;1.95;;;;;;;10.31;93.73;100547.13;5033032;28;20025;-74
2022/11/09 06:26:09;;;;;;;7.05;2.10;;;;;;;10.29;94.13;100548.19;5030273;28;20037;-74
2022/11/09 06:28:36;;;;;;;9.63;2.17;;;;;;;10.31;94.52;100547.13;5027566;28;20485;-74
2022/11/09 06:31:03;;;;;;;10.23;2.92;;;;;;;10.30;94.54;100550.78;5027394;28;20041;-73
2022/11/09 06:33:30;;;;;;;6.68;2.10;;;;;;;10.34;95.19;100552.31;5025430;28;20036;-74
2022/11/09 06:35:57;;;;;;;7.93;1.80;;;;;;;10.39;94.72;100554.66;5040694;28;20044;-74
2022/11/09 06:38:25;;;;;;;12.93;2.40;;;;;;;10.44;95.24;100553.34;5028440;28;20025;-74
2022/11/09 06:40:52;;;;;;;7.45;2.30;;;;;;;10.46;94.58;100554.09;5026903;28;20102;-74
2022/11/09 06:43:17;;;;;;;11.93;1.98;;;;;;;10.52;94.83;100560.03;5028794;28;20033;-74
2022/11/09 06:45:43;;;;;;;8.35;1.98;;;;;;;10.53;94.54;100564.50;5027879;28;20029;-74
2022/11/09 06:48:09;;;;;;;9.80;2.17;;;;;;;10.55;94.76;100565.25;5028792;28;20033;-75
2022/11/09 06:50:34;;;;;;;9.73;1.98;;;;;;;10.51;94.82;100563.75;5028044;28;20059;-74
2022/11/09 06:53:03;;;;;;;8.27;1.90;;;;;;;10.50;94.87;100568.34;5010917;28;20029;-74
2022/11/09 06:55:30;;;;;;;9.57;2.10;;;;;;;10.48;95.11;100570.28;5027499;28;20091;-74
2022/11/09 06:57:56;;;;;;;16.27;4.70;;;;;;;10.44;94.65;100568.78;5035385;28;20058;-74
2022/11/09 07:00:22;;;;;;;9.50;2.70;;;;;;;10.42;95.05;100570.75;5026423;28;20037;-74
2022/11/09 07:02:47;;;;;;;7.22;2.00;;;;;;;10.39;94.74;100568.28;5027093;28;20120;-74
2022/11/09 07:05:13;;;;;;;12.68;2.55;;;;;;;10.38;95.04;100571.97;5028402;28;20394;-74
2022/11/09 07:07:38;;;;;;;10.75;2.67;;;;;;;10.37;95.18;100576.56;5027709;28;20034;-74
2022/11/09 07:10:04;;;;;;;8.63;2.25;;;;;;;10.35;95.47;100581.25;5047920;28;20028;-74
2022/11/09 07:12:31;;;;;;;13.18;2.50;;;;;;;10.35;95.44;100580.34;5033094;28;20033;-74
2022/11/09 07:14:56;;;;;;;11.32;2.53;;;;;;;10.38;95.23;100585.56;5026549;28;20033;-74
2022/11/09 07:17:22;;;;;;;12.70;2.35;;;;;;;10.39;95.24;100590.03;5029030;28;20067;-74
2022/11/09 07:19:47;;;;;;;8.23;1.85;;;;;;;10.34;94.98;100579.50;5047786;28;20044;-74
2022/11/09 07:22:12;;;;;;;6.32;2.08;;;;;;;10.40;95.65;100579.06;5048139;28;20087;-74
2022/11/09 07:24:38;;;;;;;6.95;1.88;;;;;;;10.43;95.00;100589.66;5046561;28;20029;-74
2022/11/09 07:27:03;;;;;;;16.27;2.47;;;;;;;10.48;95.08;100589.31;5032453;28;20035;-74
2022/11/09 07:29:28;;;;;;;9.40;2.17;;;;;;;10.54;94.72;100597.03;5048586;28;20055;-74
2022/11/09 07:31:54;;;;;;;6.45;1.90;;;;;;;10.58;94.85;100601.22;5030442;28;20042;-74
2022/11/09 07:34:19;;;;;;;8.27;2.25;;;;;;;10.59;94.55;100594.84;5027086;28;20041;-74
2022/11/09 07:36:45;;;;;;;9.23;2.30;;;;;;;10.65;94.59;100601.66;5028261;28;20041;-74
2022/11/09 07:39:10;;;;;;;12.38;2.20;;;;;;;10.65;94.38;100594.34;5041715;28;20539;-74
2022/11/09 07:41:36;;;;;;;8.32;1.85;;;;;;;10.68;94.16;100594.13;5045442;28;20377;-74
2022/11/09 07:44:01;;;;;;;13.80;2.25;;;;;;;10.72;94.22;100597.44;5029036;28;20350;-75
2022/11/09 07:46:27;;;;;;;9.25;1.88;;;;;;;10.73;94.62;100589.19;5027885;28;20091;-73
2022/11/09 07:48:52;;;;;;;12.23;2.22;;;;;;;10.72;94.29;100600.19;5027942;28;20037;-74
2022/11/09 07:51:17;;;;;;;9.90;2.80;;;;;;;10.72;94.00;100597.44;5009814;28;20137;-74
2022/11/09 07:53:43;;;;;;;8.48;1.92;;;;;;;10.75;94.21;100596.38;5028592;28;20120;-74
2022/11/09 07:56:08;;;;;;;12.10;2.28;;;;;;;10.78;94.34;100598.84;5031687;28;20042;-74
2022/11/09 07:58:35;;;;;;;8.38;2.88;;;;;;;10.80;94.10;100603.19;5030300;28;20029;-74
2022/11/09 08:01:06;;;;;;;8.63;1.80;;;;;;;10.86;93.72;100605.41;5032239;28;20069;-74
2022/11/09 08:03:31;;;;;;;10.85;3.05;;;;;;;10.97;94.09;100612.78;5031909;28;20464;-74
2022/11/09 08:05:57;;;;;;;8.25;2.00;;;;;;;11.05;93.52;100618.50;5013566;28;20084;-74
2022/11/09 08:08:22;;;;;;;12.13;2.85;;;;;;;11.10;93.46;100623.56;5031357;28;20045;-74
2022/11/09 08:10:51;;;;;;;10.98;2.30;;;;;;;11.14;93.35;100616.88;5031045;28;20572;-74
2022/11/09 08:13:17;;;;;;;10.25;2.08;;;;;;;11.20;92.78;100628.16;5041976;28;20080;-74
2022/11/09 08:15:43;;;;;;;5.90;1.90;;;;;;;11.26;92.77;100626.81;5044010;28;20033;-74
2022/11/09 08:18:15;;;;;;;8.50;2.10;;;;;;;11.29;92.20;100631.16;5030177;28;20507;-74
2022/11/09 08:20:40;;;;;;;9.27;2.22;;;;;;;11.34;91.75;100627.09;5031759;28;20037;-74
2022/11/09 08:23:06;;;;;;;10.15;2.20;;;;;;;11.36;92.06;100640.56;5031182;28;20080;-74
2022/11/09 08:25:33;;;;;;;11.75;2.53;;;;;;;11.39;92.04;100640.34;5031738;28;20437;-74
2022/11/09 08:27:58;;;;;;;14.82;2.53;;;;;;;11.46;91.78;100644.28;5031130;28;20045;-74
2022/11/09 08:30:24;;;;;;;6.63;1.88;;;;;;;11.53;91.67;100641.97;5046397;28;20040;-73
2022/11/09 08:32:50;;;;;;;12.10;2.97;;;;;;;11.57;91.34;100649.78;5031169;28;20126;-74
2022/11/09 08:35:19;;;;;;;14.93;1.98;;;;;;;11.61;90.93;100651.28;5030940;28;20065;-74
2022/11/09 08:37:45;;;;;;;12.10;2.10;;;;;;;11.67;90.78;100655.34;5030695;28;20468;-74
2022/11/09 08:40:12;;;;;;;16.35;2.17;;;;;;;11.72;90.58;100659.44;5029436;28;20108;-74
2022/11/09 08:42:38;;;;;;;8.45;1.73;;;;;;;11.78;90.07;100651.75;5029701;28;20029;-74
2022/11/09 08:45:04;;;;;;;8.50;1.73;;;;;;;11.80;89.69;100656.09;5031499;28;20051;-74
2022/11/09 08:47:30;;;;;;;13.45;1.88;;;;;;;11.84;89.65;100659.47;5031145;28;20043;-74
2022/11/09 08:49:55;;;;;;;8.23;2.47;;;;;;;11.90;89.69;100654.41;5031179;28;20037;-74
2022/11/09 08:52:21;;;;;;;9.90;2.40;;;;;;;11.97;88.72;100655.63;5029360;28;20488;-74
2022/11/09 08:54:46;;;;;;;8.55;2.28;;;;;;;12.03;89.04;100648.81;5047737;28;20037;-74
2022/11/09 08:57:12;;;;;;;7.47;2.33;;;;;;;12.09;87.87;100658.34;5032010;28;20033;-74
2022/11/09 08:59:37;;;;;;;9.00;2.15;;;;;;;12.10;87.91;100658.22;5029670;28;20037;-74
2022/11/09 09:02:03;;;;;;;8.80;1.90;;;;;;;12.10;88.26;100651.91;5047058;28;20112;-73
2022/11/09 09:04:28;;;;;;;9.63;2.13;;;;;;;12.14;87.79;100654.25;5050447;28;20044;-74
2022/11/09 09:06:54;;;;;;;10.63;2.50;;;;;;;12.18;87.45;100652.16;5049087;28;20506;-73
2022/11/09 09:09:20;;;;;;;12.90;2.22;;;;;;;12.21;87.11;100649.16;5034993;28;20033;-74
2022/11/09 09:11:45;;;;;;;9.25;2.60;;;;;;;12.26;86.43;100652.34;5030298;28;20042;-74
2022/11/09 09:14:11;;;;;;;7.07;2.63;;;;;;;12.31;86.83;100660.16;5030335;28;20056;-74
2022/11/09 09:16:36;;;;;;;6.40;1.92;;;;;;;12.33;85.85;100648.13;5029946;28;20041;-74
2022/11/09 09:19:01;;;;;;;10.52;2.22;;;;;;;12.35;85.42;100648.00;5030408;28;20132;-74
2022/11/09 09:21:27;;;;;;;6.20;2.30;;;;;;;12.35;86.12;100653.47;5045430;28;20113;-74
2022/11/09 09:23:53;;;;;;;11.70;3.25;;;;;;;12.40;86.17;100663.03;5029885;28;20033;-74
2022/11/09 09:26:18;;;;;;;9.40;1.80;;;;;;;12.49;86.00;100650.44;5028646;28;20041;-74
2022/11/09 09:28:44;;;;;;;7.50;1.92;;;;;;;12.54;84.98;100647.34;5028773;28;20045;-74
2022/11/09 09:31:09;;;;;;;11.13;2.28;;;;;;;12.59;83.97;100665.06;5029175;28;20029;-74
2022/11/09 09:33:35;;;;;;;9.48;2.58;;;;;;;12.62;83.44;100656.63;5028431;28;20037;-73
2022/11/09 09:36:01;;;;;;;8.93;1.90;;;;;;;12.66;84.15;100669.00;5029081;28;20041;-74
2022/11/09 09:38:28;;;;;;;12.73;2.75;;;;;;;12.72;83.59;100668.47;5028450;28;20096;-74
2022/11/09 09:40:58;;;;;;;6.03;1.90;;;;;;;12.83;83.13;100674.94;5028253;28;20029;-74
2022/11/09 09:43:29;;;;;;;7.10;2.20;;;;;;;12.86;82.89;100663.72;5029823;28;20500;-73
2022/11/09 09:45:54;;;;;;;11.45;1.70;;;;;;;12.87;82.24;100668.19;5028806;28;20049;-74
2022/11/09 09:48:30;;;;;;;7.18;1.85;;;;;;;12.85;82.34;100678.38;5033892;28;20514;-74
2022/11/09 09:51:02;;;;;;;9.38;2.15;;;;;;;12.85;81.64;100678.38;5048635;28;20447;-73
2022/11/09 09:53:48;;;;;;;10.07;2.25;;;;;;;12.87;82.23;100681.84;5039983;28;20109;-73
2022/11/09 09:56:43;;;;;;;7.55;2.10;;;;;;;12.94;82.32;100691.25;5028636;28;20052;-74
2022/11/09 09:59:08;;;;;;;7.93;1.55;;;;;;;12.99;81.92;100689.84;5026183;28;20045;-73
2022/11/09 10:01:42;;;;;;;11.40;1.88;;;;;;;13.12;82.24;100692.41;5029486;28;20491;-74
2022/11/09 10:04:13;;;;;;;7.45;1.73;;;;;;;13.24;81.58;100698.72;5029651;28;20179;-73
2022/11/09 10:07:22;;;;;;;8.00;2.13;;;;;;;13.32;81.43;100698.91;5029261;28;20052;-73
2022/11/09 10:09:56;;;;;;;9.75;2.22;;;;;;;13.36;79.45;100694.94;5010452;28;20046;-74
2022/11/09 10:12:50;;;;;;;6.28;1.70;;;;;;;13.41;80.16;100703.59;5037911;28;20148;-74
2022/11/09 10:15:26;;;;;;;13.63;2.30;;;;;;;13.42;79.96;100693.53;5044794;28;20057;-73
2022/11/09 10:18:08;;;;;;;11.82;2.80;;;;;;;13.51;79.99;100706.38;5027574;28;20061;-74
2022/11/09 10:21:00;;;;;;;7.45;2.22;;;;;;;13.66;78.93;100704.19;5031245;28;20118;-73
2022/11/09 10:23:40;;;;;;;9.35;2.00;;;;;;;13.78;78.36;100695.78;5039626;28;20111;-73
2022/11/09 10:26:36;;;;;;;7.60;1.90;;;;;;;13.92;78.24;100701.88;5034391;28;20119;-75
2022/11/09 10:29:20;;;;;;;10.70;2.08;;;;;;;14.06;78.01;100706.13;5031816;28;20045;-73
2022/11/09 10:31:47;;;;;;;10.00;1.80;;;;;;;14.10;76.64;100700.25;5027470;28;20065;-73
2022/11/09 10:34:19;;;;;;;7.65;1.52;;;;;;;14.15;76.78;100708.03;5028994;28;20259;-73
2022/11/09 10:36:52;;;;;;;8.30;1.88;;;;;;;14.22;76.11;100706.47;5028639;28;20045;-73
2022/11/09 10:39:21;;;;;;;5.32;1.55;;;;;;;14.37;75.63;100705.13;5042601;28;20047;-74
2022/11/09 10:42:09;;;;;;;10.45;1.52;;;;;;;14.47;73.96;100713.34;5032324;28;20385;-74
2022/11/09 10:44:53;;;;;;;7.70;1.73;;;;;;;14.48;75.16;100717.84;5029429;28;20136;-73
2022/11/09 10:47:48;;;;;;;5.13;1.35;;;;;;;14.49;73.67;100717.69;5029043;28;20151;-73
2022/11/09 10:50:51;;;;;;;10.45;2.28;;;;;;;14.43;73.43;100714.63;5028146;28;20084;-73
2022/11/09 10:53:35;;;;;;;6.53;1.40;;;;;;;14.28;72.21;100734.16;5029083;28;20135;-73
2022/11/09 10:56:19;;;;;;;9.63;2.25;;;;;;;14.17;73.93;100733.38;5028959;28;20103;-73
2022/11/09 10:59:28;;;;;;;7.63;1.77;;;;;;;14.06;74.21;100737.09;5028337;28;20056;-74
2022/11/09 11:02:40;;;;;;;4.90;1.73;;;;;;;13.98;75.83;100726.81;5029084;28;20111;-73
2022/11/09 11:05:27;;;;;;;10.30;2.00;;;;;;;13.90;74.82;100737.59;5029004;28;20346;-74
2022/11/09 11:08:23;;;;;;;5.53;1.33;;;;;;;13.85;75.41;100731.66;5032964;28;20043;-73
2022/11/09 11:11:16;;;;;;;6.47;1.90;;;;;;;13.89;75.49;100737.69;5040342;28;20052;-73
2022/11/09 11:14:26;;;;;;;6.75;1.80;;;;;;;13.90;74.94;100743.06;5029123;28;20103;-73
2022/11/09 11:17:26;;;;;;;6.35;1.77;;;;;;;13.90;74.51;100740.31;5032180;28;20047;-73
2022/11/09 11:20:30;;;;;;;8.63;1.88;;;;;;;13.92;74.33;100738.31;5047550;28;20106;-73
2022/11/09 11:23:20;;;;;;;5.90;2.00;;;;;;;13.96;75.16;100726.09;5043425;28;20053;-72
2022/11/09 11:26:16;;;;;;;11.93;1.95;;;;;;;13.99;74.01;100733.19;5042022;28;20053;-73
2022/11/09 11:29:25;;;;;;;10.93;1.42;;;;;;;13.93;75.45;100734.56;5033221;28;20515;-73
2022/11/09 11:32:18;;;;;;;7.65;1.58;;;;;;;13.92;74.60;100731.97;5030706;28;20044;-73
2022/11/09 11:35:04;;;;;;;8.75;2.30;;;;;;;13.86;73.52;100744.34;5032669;28;20190;-73
2022/11/09 11:38:07;;;;;;;10.57;1.80;;;;;;;13.86;75.30;100740.72;5033232;28;20094;-72